Time;durP1;ratioP1;P1;durP2;ratioP2;P2;SDS_P1;SDS_P2;PMS_P1;PMS_P2;Temp;Humidity;BMP_temperature;BMP_pressure;BME280_temperature;BME280_humidity;BME280_pressure;Samples;Min_cycle;Max_cycle;Signal;HPM_P1;HPM_P2
2023/12/14 00:00:08;;;;;;;23.90;14.43;;;2.90;99.90;;;;;;5129657;27;20268;-63
2023/12/14 00:02:37;;;;;;;21.97;14.50;;;2.90;99.90;;;;;;5129647;27;20765;-61
2023/12/14 00:05:06;;;;;;;26.00;15.77;;;3.00;99.90;;;;;;5129293;27;20559;-61
2023/12/14 00:07:34;;;;;;;48.63;26.10;;;3.00;99.90;;;;;;5129622;28;20199;-63
2023/12/14 00:10:04;;;;;;;67.33;36.50;;;3.10;99.90;;;;;;5129630;27;20222;-60
2023/12/14 00:12:34;;;;;;;68.47;36.73;;;3.20;99.90;;;;;;5133780;27;20558;-62
2023/12/14 00:15:03;;;;;;;64.47;35.57;;;3.20;99.90;;;;;;5133923;27;20681;-61
2023/12/14 00:17:31;;;;;;;60.00;34.27;;;3.30;99.90;;;;;;5133636;27;20221;-61
2023/12/14 00:19:59;;;;;;;52.10;29.43;;;3.40;99.90;;;;;;5133579;27;20285;-60
2023/12/14 00:22:28;;;;;;;42.23;25.07;;;3.50;99.90;;;;;;5133520;27;20273;-62
2023/12/14 00:24:56;;;;;;;28.47;18.20;;;3.60;99.90;;;;;;5133629;27;20195;-62
2023/12/14 00:27:24;;;;;;;34.50;21.80;;;3.60;99.90;;;;;;5133405;27;20571;-60
2023/12/14 00:29:54;;;;;;;49.40;27.83;;;3.60;99.90;;;;;;5133504;27;20207;-63
2023/12/14 00:32:22;;;;;;;45.07;24.43;;;3.60;99.90;;;;;;5133678;27;20565;-60
2023/12/14 00:34:51;;;;;;;37.67;22.83;;;3.60;99.90;;;;;;5133582;27;20555;-58
2023/12/14 00:37:19;;;;;;;37.87;22.70;;;3.60;99.90;;;;;;5133551;27;20206;-62
2023/12/14 00:39:48;;;;;;;29.07;17.80;;;3.60;99.90;;;;;;5133100;27;20673;-60
2023/12/14 00:42:16;;;;;;;39.27;21.30;;;3.60;99.90;;;;;;5132856;27;20234;-63
2023/12/14 00:44:44;;;;;;;43.83;26.13;;;3.60;99.90;;;;;;5133299;27;20214;-60
2023/12/14 00:47:14;;;;;;;40.33;25.77;;;3.60;99.90;;;;;;5133242;27;20195;-59
2023/12/14 00:49:42;;;;;;;47.50;27.73;;;3.70;99.90;;;;;;5133103;27;20248;-61
2023/12/14 00:52:11;;;;;;;48.47;26.30;;;3.70;99.90;;;;;;5132842;27;20201;-60
2023/12/14 00:54:39;;;;;;;39.53;24.07;;;3.70;99.90;;;;;;5133155;27;20520;-62
2023/12/14 00:57:07;;;;;;;39.27;23.17;;;3.70;99.90;;;;;;5132784;27;20684;-62
2023/12/14 00:59:36;;;;;;;42.07;23.73;;;3.70;99.90;;;;;;5132581;27;20627;-63
2023/12/14 01:02:04;;;;;;;40.03;25.10;;;3.80;99.90;;;;;;5132833;27;20286;-59
2023/12/14 01:04:34;;;;;;;45.27;26.67;;;3.80;99.90;;;;;;5132701;27;20281;-60
2023/12/14 01:07:02;;;;;;;37.70;23.93;;;3.80;99.90;;;;;;5132923;27;20198;-60
2023/12/14 01:09:31;;;;;;;42.53;24.17;;;3.70;99.90;;;;;;5132582;27;20692;-59
2023/12/14 01:11:59;;;;;;;31.20;17.90;;;3.60;99.90;;;;;;5132162;27;20217;-60
2023/12/14 01:14:27;;;;;;;31.60;18.83;;;3.50;99.90;;;;;;5132183;27;20206;-61
2023/12/14 01:16:56;;;;;;;30.07;19.17;;;3.50;99.90;;;;;;5132336;27;20561;-61
2023/12/14 01:19:25;;;;;;;30.63;19.60;;;3.60;99.90;;;;;;5132384;27;20195;-61
2023/12/14 01:21:55;;;;;;;32.60;20.20;;;3.60;99.90;;;;;;5131088;27;20695;-61
2023/12/14 01:24:23;;;;;;;36.07;20.33;;;3.70;99.90;;;;;;5132124;27;20661;-60
2023/12/14 01:26:51;;;;;;;36.83;21.70;;;3.80;99.90;;;;;;5131878;27;20195;-60
2023/12/14 01:29:19;;;;;;;40.70;23.37;;;3.90;99.90;;;;;;5132051;27;20199;-61
2023/12/14 01:31:48;;;;;;;45.23;25.97;;;4.00;99.90;;;;;;5132088;27;20298;-59
2023/12/14 01:34:16;;;;;;;50.33;26.80;;;4.00;99.90;;;;;;5132226;27;20208;-61
2023/12/14 01:36:44;;;;;;;47.77;25.60;;;4.00;99.90;;;;;;5131922;27;20205;-61
2023/12/14 01:39:14;;;;;;;47.80;27.27;;;4.00;99.90;;;;;;5131925;27;20273;-61
2023/12/14 01:41:42;;;;;;;43.57;24.87;;;4.10;99.90;;;;;;5131404;27;20773;-61
2023/12/14 01:44:11;;;;;;;47.27;27.33;;;4.10;99.90;;;;;;5131776;27;20221;-61
2023/12/14 01:46:39;;;;;;;57.83;35.23;;;4.10;99.90;;;;;;5131740;27;20679;-62
2023/12/14 01:49:07;;;;;;;69.33;38.83;;;3.90;99.90;;;;;;5131873;27;20187;-59
2023/12/14 01:51:36;;;;;;;62.43;36.20;;;3.70;99.90;;;;;;5131770;27;20227;-60
2023/12/14 01:54:04;;;;;;;61.43;34.73;;;3.60;99.90;;;;;;5131746;27;20256;-60
2023/12/14 01:56:34;;;;;;;59.43;35.07;;;3.50;99.90;;;;;;5131677;27;20248;-61
2023/12/14 01:59:02;;;;;;;63.07;37.77;;;3.50;99.90;;;;;;5131669;27;20203;-59
2023/12/14 02:01:39;;;;;;;67.60;37.20;;;3.50;99.90;;;;;;5131641;27;20269;-64
2023/12/14 02:04:08;;;;;;;64.30;35.90;;;3.60;99.90;;;;;;5131586;27;20802;-61
2023/12/14 02:06:36;;;;;;;61.03;35.73;;;3.50;99.90;;;;;;5131445;27;20618;-60
2023/12/14 02:09:05;;;;;;;52.00;31.23;;;3.50;99.90;;;;;;5131457;27;20191;-59
2023/12/14 02:11:35;;;;;;;49.30;28.40;;;3.40;99.90;;;;;;5131012;27;20222;-60
2023/12/14 02:14:06;;;;;;;45.27;28.20;;;3.50;99.90;;;;;;5131518;27;20274;-60
2023/12/14 02:16:35;;;;;;;43.13;27.20;;;3.50;99.90;;;;;;5131232;27;20219;-59
2023/12/14 02:19:03;;;;;;;41.53;25.30;;;3.60;99.90;;;;;;5131475;27;20298;-61
2023/12/14 02:21:32;;;;;;;45.57;28.60;;;3.60;99.90;;;;;;5131163;27;20656;-60
2023/12/14 02:24:02;;;;;;;37.83;23.13;;;3.70;99.90;;;;;;5131111;27;20201;-60
2023/12/14 02:26:30;;;;;;;44.57;25.47;;;3.70;99.90;;;;;;5130964;27;20720;-59
2023/12/14 02:28:58;;;;;;;45.67;28.50;;;3.80;99.90;;;;;;5130961;27;20205;-60
2023/12/14 02:31:27;;;;;;;48.47;28.27;;;3.70;99.90;;;;;;5130883;27;20714;-62
2023/12/14 02:33:55;;;;;;;46.87;27.33;;;3.90;99.90;;;;;;5130506;27;20700;-60
2023/12/14 02:36:24;;;;;;;41.43;27.67;;;4.10;99.90;;;;;;5130685;27;20207;-60
2023/12/14 02:38:52;;;;;;;46.43;25.37;;;4.10;99.90;;;;;;5130833;27;20187;-61
2023/12/14 02:41:22;;;;;;;41.87;25.03;;;4.20;99.90;;;;;;5130260;27;20231;-60
2023/12/14 02:43:50;;;;;;;39.30;24.50;;;4.20;99.90;;;;;;5130768;27;20228;-60
2023/12/14 02:46:18;;;;;;;39.67;23.80;;;4.20;99.90;;;;;;5130774;27;20206;-62
2023/12/14 02:48:47;;;;;;;37.50;24.47;;;4.20;99.90;;;;;;5130547;27;20195;-60
2023/12/14 02:51:15;;;;;;;44.03;26.60;;;4.10;99.90;;;;;;5130309;27;20313;-59
2023/12/14 02:53:44;;;;;;;45.10;25.20;;;3.90;99.90;;;;;;5130473;27;20203;-63
2023/12/14 02:56:12;;;;;;;36.00;23.67;;;3.70;99.90;;;;;;5130471;27;20202;-59
2023/12/14 02:58:42;;;;;;;35.53;22.53;;;3.50;99.90;;;;;;5128107;27;20595;-60
2023/12/14 03:01:10;;;;;;;33.00;19.87;;;3.50;99.90;;;;;;5130397;27;20205;-62
2023/12/14 03:03:39;;;;;;;32.60;18.97;;;3.50;99.90;;;;;;5130741;27;20214;-63
2023/12/14 03:06:08;;;;;;;27.50;17.47;;;3.60;99.90;;;;;;5130187;27;20660;-61
2023/12/14 03:08:36;;;;;;;26.30;16.97;;;3.90;99.90;;;;;;5130321;27;20661;-61
2023/12/14 03:11:05;;;;;;;37.63;22.93;;;4.00;99.90;;;;;;5130027;27;20276;-60
2023/12/14 03:13:33;;;;;;;42.37;24.17;;;4.20;99.90;;;;;;5130049;27;20293;-60
2023/12/14 03:16:03;;;;;;;31.10;20.40;;;4.10;99.90;;;;;;5130074;27;20743;-60
2023/12/14 03:18:31;;;;;;;36.80;21.50;;;4.10;99.90;;;;;;5130258;27;20206;-60
2023/12/14 03:21:00;;;;;;;33.57;21.00;;;4.20;99.90;;;;;;5129853;27;20729;-62
2023/12/14 03:23:29;;;;;;;39.43;25.47;;;4.20;99.90;;;;;;5129982;27;20187;-62
2023/12/14 03:25:57;;;;;;;44.10;27.57;;;4.10;99.90;;;;;;5130043;27;20199;-62
2023/12/14 03:28:25;;;;;;;42.00;26.30;;;3.90;99.90;;;;;;5129667;27;20226;-62
2023/12/14 03:30:54;;;;;;;49.73;29.17;;;3.90;99.90;;;;;;5129571;27;20228;-62
2023/12/14 03:33:24;;;;;;;45.83;28.53;;;3.80;99.90;;;;;;5129845;27;20575;-60
2023/12/14 03:35:52;;;;;;;48.57;28.37;;;3.70;99.90;;;;;;5129584;27;20233;-63
2023/12/14 03:38:20;;;;;;;53.60;29.20;;;3.70;99.90;;;;;;5129589;27;20191;-61
2023/12/14 03:40:49;;;;;;;45.70;28.13;;;3.60;99.90;;;;;;5129473;27;20226;-62
2023/12/14 03:43:17;;;;;;;43.27;25.93;;;3.60;99.90;;;;;;5129603;27;20203;-62
2023/12/14 03:45:45;;;;;;;45.93;27.23;;;3.60;99.90;;;;;;5129169;27;20199;-60
2023/12/14 03:48:14;;;;;;;44.10;26.67;;;3.60;99.90;;;;;;5129684;27;20191;-62
2023/12/14 03:50:44;;;;;;;42.93;26.83;;;3.80;99.90;;;;;;5129525;27;20657;-62
2023/12/14 03:53:12;;;;;;;45.10;27.43;;;3.80;99.90;;;;;;5129575;27;20191;-62
2023/12/14 03:55:40;;;;;;;46.47;27.63;;;3.70;99.90;;;;;;5129395;27;20219;-61
2023/12/14 03:58:09;;;;;;;45.83;27.33;;;3.90;99.90;;;;;;5129294;27;20205;-62
2023/12/14 04:00:37;;;;;;;43.77;27.17;;;3.90;99.90;;;;;;5129567;28;20708;-61
2023/12/14 04:03:05;;;;;;;44.43;27.53;;;3.90;99.90;;;;;;5129563;27;20189;-62
2023/12/14 04:05:34;;;;;;;43.63;27.63;;;3.90;99.90;;;;;;5129722;28;20665;-61
2023/12/14 04:08:04;;;;;;;43.47;27.03;;;3.90;99.90;;;;;;5129644;28;20532;-62
2023/12/14 04:10:32;;;;;;;48.83;28.43;;;3.80;99.90;;;;;;5129364;28;20187;-63
2023/12/14 04:13:00;;;;;;;43.60;25.90;;;3.70;99.90;;;;;;5129470;27;20704;-63
2023/12/14 04:15:29;;;;;;;37.63;23.63;;;3.70;99.90;;;;;;5129586;28;20299;-61
2023/12/14 04:17:57;;;;;;;37.80;24.60;;;3.70;99.90;;;;;;5128548;28;20197;-62
2023/12/14 04:20:25;;;;;;;35.53;24.20;;;3.70;99.90;;;;;;5129694;27;20210;-60
2023/12/14 04:22:54;;;;;;;34.30;22.93;;;3.80;99.90;;;;;;5129575;28;20271;-61
2023/12/14 04:25:23;;;;;;;35.30;23.30;;;3.80;99.90;;;;;;5129344;28;20687;-62
2023/12/14 04:27:52;;;;;;;36.90;22.57;;;4.00;99.90;;;;;;5129472;27;20660;-62
2023/12/14 04:30:20;;;;;;;35.30;23.93;;;4.10;99.90;;;;;;5129462;28;20194;-63
2023/12/14 04:32:48;;;;;;;47.63;23.87;;;4.10;99.90;;;;;;5129413;27;20226;-61
2023/12/14 04:35:17;;;;;;;39.47;23.37;;;4.00;99.90;;;;;;5129586;28;20236;-62
2023/12/14 04:37:45;;;;;;;34.27;21.87;;;4.00;99.90;;;;;;5129480;28;20613;-62
2023/12/14 04:40:14;;;;;;;35.63;21.47;;;4.10;99.90;;;;;;5128966;27;20191;-60
2023/12/14 04:42:43;;;;;;;31.10;19.20;;;4.10;99.90;;;;;;5129280;27;20205;-61
2023/12/14 04:45:12;;;;;;;28.80;18.37;;;4.10;99.90;;;;;;5129105;28;20722;-63
2023/12/14 04:47:41;;;;;;;23.73;15.57;;;4.10;99.90;;;;;;5129256;28;20962;-61
2023/12/14 04:50:10;;;;;;;22.63;15.40;;;4.00;99.90;;;;;;5129106;27;20278;-61
2023/12/14 04:52:38;;;;;;;24.53;14.77;;;4.00;99.90;;;;;;5129126;27;20215;-61
2023/12/14 04:55:08;;;;;;;23.57;15.03;;;4.10;99.90;;;;;;5129273;27;20209;-61
2023/12/14 04:57:37;;;;;;;25.73;14.63;;;4.20;99.90;;;;;;5131945;27;20206;-62
2023/12/14 05:00:08;;;;;;;23.47;15.50;;;4.20;99.90;;;;;;5133153;27;20263;-63
2023/12/14 05:02:36;;;;;;;25.17;16.20;;;4.20;99.90;;;;;;5133003;27;20203;-62
2023/12/14 05:05:05;;;;;;;22.13;14.40;;;4.20;99.90;;;;;;5132858;27;20199;-61
2023/12/14 05:07:34;;;;;;;21.67;14.87;;;4.10;99.90;;;;;;5132880;27;20191;-63
2023/12/14 05:10:02;;;;;;;20.57;14.83;;;4.00;99.90;;;;;;5132984;27;20202;-61
2023/12/14 05:12:31;;;;;;;21.60;13.87;;;4.00;99.90;;;;;;5132556;27;20748;-64
2023/12/14 05:14:59;;;;;;;17.87;13.17;;;4.00;99.90;;;;;;5132774;27;20222;-61
2023/12/14 05:17:29;;;;;;;22.37;14.70;;;3.90;99.90;;;;;;5132086;27;20198;-64
2023/12/14 05:19:58;;;;;;;21.83;14.70;;;4.00;99.90;;;;;;5131975;27;20199;-65
2023/12/14 05:22:27;;;;;;;18.77;12.17;;;4.10;99.90;;;;;;5132115;27;20216;-65
2023/12/14 05:24:55;;;;;;;18.27;11.83;;;4.10;99.90;;;;;;5131700;27;20190;-64
2023/12/14 05:27:24;;;;;;;15.53;11.33;;;4.20;99.90;;;;;;5131529;27;20673;-64
2023/12/14 05:29:53;;;;;;;15.70;10.30;;;4.10;99.90;;;;;;5131707;27;20198;-64
2023/12/14 05:32:21;;;;;;;11.70;9.80;;;4.10;99.90;;;;;;5131390;27;20293;-64
2023/12/14 05:34:51;;;;;;;13.60;10.33;;;4.20;99.90;;;;;;5131571;27;20210;-64
2023/12/14 05:37:19;;;;;;;17.97;12.07;;;4.30;99.90;;;;;;5132402;27;20193;-61
2023/12/14 05:39:47;;;;;;;15.07;11.27;;;4.40;99.90;;;;;;5132234;27;20223;-61
2023/12/14 05:42:17;;;;;;;14.37;10.73;;;4.50;99.90;;;;;;5131832;27;20389;-63
2023/12/14 05:44:45;;;;;;;17.20;10.57;;;4.40;99.90;;;;;;5131922;27;20211;-62
2023/12/14 05:47:14;;;;;;;12.73;10.90;;;4.30;99.90;;;;;;5131999;27;20199;-62
2023/12/14 05:49:43;;;;;;;14.97;10.97;;;4.20;99.90;;;;;;5132282;27;20325;-64
2023/12/14 05:52:13;;;;;;;15.37;11.10;;;4.30;99.90;;;;;;5130142;27;20233;-60
2023/12/14 05:54:41;;;;;;;15.23;10.83;;;4.40;99.90;;;;;;5132049;27;20549;-62
2023/12/14 05:57:12;;;;;;;13.30;9.60;;;4.40;99.90;;;;;;5131717;27;20199;-63
2023/12/14 05:59:41;;;;;;;15.47;10.23;;;4.40;99.90;;;;;;5131670;27;20203;-64
2023/12/14 06:02:09;;;;;;;14.20;9.57;;;4.50;99.90;;;;;;5131933;27;20199;-63
2023/12/14 06:04:37;;;;;;;15.73;10.37;;;4.50;99.90;;;;;;5130542;27;20539;-63
2023/12/14 06:07:07;;;;;;;15.47;10.20;;;4.30;99.90;;;;;;5131608;27;20226;-61
2023/12/14 06:09:37;;;;;;;15.17;10.97;;;4.40;99.90;;;;;;5131012;27;20204;-63
2023/12/14 06:12:06;;;;;;;14.63;11.33;;;4.40;99.90;;;;;;5131687;27;20210;-62
2023/12/14 06:14:35;;;;;;;13.00;9.13;;;4.30;99.90;;;;;;5131582;27;20191;-62
2023/12/14 06:17:03;;;;;;;15.23;9.80;;;4.20;99.90;;;;;;5131882;27;20226;-63
2023/12/14 06:19:32;;;;;;;14.63;9.70;;;4.20;99.90;;;;;;5131662;27;20241;-63
2023/12/14 06:22:00;;;;;;;16.97;10.53;;;4.30;99.90;;;;;;5131517;27;20191;-62
2023/12/14 06:24:28;;;;;;;13.67;9.77;;;4.30;99.90;;;;;;5131338;27;20601;-64
2023/12/14 06:26:58;;;;;;;14.23;9.97;;;4.20;99.90;;;;;;5131485;27;20200;-64
2023/12/14 06:29:26;;;;;;;15.17;10.03;;;4.20;99.90;;;;;;5131333;27;20214;-64
2023/12/14 06:31:55;;;;;;;11.57;9.87;;;4.30;99.90;;;;;;5131336;27;20794;-64
2023/12/14 06:34:23;;;;;;;15.80;10.67;;;4.20;99.90;;;;;;5131316;27;20644;-63
2023/12/14 06:36:52;;;;;;;10.83;8.93;;;4.10;99.90;;;;;;5131214;27;20680;-64
2023/12/14 06:39:20;;;;;;;14.63;9.67;;;4.10;99.90;;;;;;5131232;27;20965;-64
2023/12/14 06:41:48;;;;;;;11.53;9.23;;;4.10;99.90;;;;;;5130804;27;20588;-63
2023/12/14 06:44:18;;;;;;;11.93;9.47;;;4.30;99.90;;;;;;5131212;27;20201;-62
2023/12/14 06:46:47;;;;;;;13.00;9.93;;;4.40;99.90;;;;;;5131169;27;20205;-63
2023/12/14 06:49:15;;;;;;;13.80;10.47;;;4.60;99.90;;;;;;5131063;27;20198;-64
2023/12/14 06:51:44;;;;;;;11.83;10.00;;;4.60;99.90;;;;;;5130958;27;20195;-63
2023/12/14 06:54:13;;;;;;;15.97;10.60;;;4.60;99.90;;;;;;5130697;27;20248;-63
2023/12/14 06:56:41;;;;;;;16.37;9.77;;;4.60;99.90;;;;;;5130790;27;20202;-63
2023/12/14 06:59:09;;;;;;;16.13;10.93;;;4.50;99.90;;;;;;5130759;27;20190;-60
2023/12/14 07:01:39;;;;;;;13.17;10.40;;;4.60;99.90;;;;;;5130723;27;20195;-62
2023/12/14 07:04:07;;;;;;;16.00;11.37;;;4.60;99.90;;;;;;5130606;27;20222;-62
2023/12/14 07:06:36;;;;;;;15.33;11.10;;;4.60;99.90;;;;;;5130853;27;20595;-63
2023/12/14 07:09:05;;;;;;;20.60;13.50;;;4.60;99.90;;;;;;5130519;27;20191;-62
2023/12/14 07:11:33;;;;;;;16.60;12.13;;;4.50;99.90;;;;;;5130469;27;20649;-62
2023/12/14 07:14:01;;;;;;;27.53;17.00;;;4.30;99.90;;;;;;5130152;27;20230;-64
2023/12/14 07:16:30;;;;;;;38.63;22.43;;;4.20;99.90;;;;;;5130094;27;20199;-61
2023/12/14 07:18:59;;;;;;;40.73;21.80;;;4.20;99.90;;;;;;5130342;27;20597;-63
2023/12/14 07:21:28;;;;;;;39.37;24.23;;;4.10;99.90;;;;;;5129352;27;20716;-60
2023/12/14 07:23:56;;;;;;;44.20;29.03;;;4.00;99.90;;;;;;5130173;27;20569;-61
2023/12/14 07:26:25;;;;;;;42.50;26.80;;;4.10;99.90;;;;;;5130205;27;20191;-63
2023/12/14 07:28:54;;;;;;;41.27;25.53;;;4.10;99.90;;;;;;5130193;27;20724;-62
2023/12/14 07:31:23;;;;;;;35.37;23.93;;;4.20;99.90;;;;;;5130639;27;20626;-63
2023/12/14 07:33:51;;;;;;;26.40;18.57;;;4.20;99.90;;;;;;5130438;27;20226;-63
2023/12/14 07:36:22;;;;;;;26.17;17.50;;;4.10;99.90;;;;;;5130661;27;20872;-62
2023/12/14 07:38:50;;;;;;;21.77;15.50;;;4.00;99.90;;;;;;5130408;27;20605;-61
2023/12/14 07:41:26;;;;;;;20.90;15.00;;;4.10;99.90;;;;;;5130147;27;20223;-62
2023/12/14 07:43:54;;;;;;;20.17;14.53;;;4.20;99.90;;;;;;5129973;27;20207;-63
2023/12/14 07:46:22;;;;;;;35.13;22.73;;;4.40;99.90;;;;;;5130219;27;20193;-62
2023/12/14 07:48:51;;;;;;;24.47;18.43;;;4.60;99.90;;;;;;5130058;27;20194;-60
2023/12/14 07:51:20;;;;;;;30.47;22.43;;;4.50;99.90;;;;;;5130014;27;20202;-62
2023/12/14 07:53:49;;;;;;;29.37;21.17;;;4.40;99.90;;;;;;5129881;27;20248;-61
2023/12/14 07:56:18;;;;;;;27.83;19.00;;;4.30;99.90;;;;;;5129799;27;20206;-65
2023/12/14 07:58:46;;;;;;;22.03;15.93;;;4.30;99.90;;;;;;5129691;27;20555;-61
2023/12/14 08:01:14;;;;;;;24.57;15.87;;;4.00;99.90;;;;;;5129853;27;20191;-63
2023/12/14 08:03:43;;;;;;;22.10;15.97;;;4.10;99.90;;;;;;5129815;27;20260;-63
2023/12/14 08:06:11;;;;;;;34.10;21.27;;;4.40;99.90;;;;;;5129860;27;20204;-63
2023/12/14 08:08:42;;;;;;;24.23;17.00;;;4.50;99.90;;;;;;5129643;28;20240;-63
2023/12/14 08:11:11;;;;;;;26.07;17.27;;;4.60;99.90;;;;;;5129699;27;20195;-62
2023/12/14 08:13:40;;;;;;;81.70;45.20;;;4.60;99.90;;;;;;5129510;28;20222;-63
2023/12/14 08:16:11;;;;;;;64.87;38.07;;;4.70;99.90;;;;;;5129791;28;20191;-65
2023/12/14 08:18:40;;;;;;;70.53;41.00;;;4.90;99.90;;;;;;5129748;28;20183;-64
2023/12/14 08:21:09;;;;;;;40.23;27.33;;;5.10;99.90;;;;;;5129573;28;20678;-60
2023/12/14 08:23:40;;;;;;;47.70;28.50;;;5.10;99.90;;;;;;5129506;28;20342;-64
2023/12/14 08:26:10;;;;;;;46.70;29.30;;;5.00;99.90;;;;;;5129598;28;20578;-63
2023/12/14 08:28:38;;;;;;;54.93;34.33;;;4.90;99.90;;;;;;5129238;27;20248;-61
2023/12/14 08:31:08;;;;;;;56.80;36.30;;;5.00;99.90;;;;;;5129765;27;20202;-62
2023/12/14 08:33:36;;;;;;;40.87;28.53;;;5.10;99.90;;;;;;5132090;27;20267;-61
2023/12/14 08:36:06;;;;;;;53.40;33.80;;;5.20;99.90;;;;;;5133579;27;20198;-61
2023/12/14 08:38:34;;;;;;;45.87;28.33;;;5.30;99.90;;;;;;5133557;27;20226;-61
2023/12/14 08:41:02;;;;;;;35.43;24.20;;;5.30;99.90;;;;;;5133209;27;20318;-61
2023/12/14 08:43:32;;;;;;;30.53;20.83;;;5.30;99.90;;;;;;5133280;27;20246;-62
2023/12/14 08:46:00;;;;;;;29.27;19.93;;;5.40;99.90;;;;;;5133239;27;20191;-62
2023/12/14 08:48:29;;;;;;;32.17;19.40;;;5.30;99.90;;;;;;5133281;27;20187;-63
2023/12/14 08:50:57;;;;;;;33.17;20.83;;;5.40;99.90;;;;;;5133358;27;20215;-61
2023/12/14 08:53:26;;;;;;;31.70;20.93;;;5.40;99.90;;;;;;5133349;27;20695;-64
2023/12/14 08:55:54;;;;;;;40.73;28.17;;;5.20;99.90;;;;;;5133380;27;20191;-61
2023/12/14 08:58:22;;;;;;;30.93;22.13;;;5.20;99.90;;;;;;5133022;27;20553;-62
2023/12/14 09:00:52;;;;;;;33.10;23.13;;;5.10;99.90;;;;;;5133075;27;20194;-63
2023/12/14 09:03:21;;;;;;;24.57;18.23;;;5.00;99.90;;;;;;5133066;27;20278;-59
2023/12/14 09:05:49;;;;;;;28.07;18.10;;;4.90;99.90;;;;;;5133099;27;20199;-63
2023/12/14 09:08:18;;;;;;;26.43;16.93;;;4.80;99.90;;;;;;5132999;27;20299;-62
2023/12/14 09:10:47;;;;;;;26.17;18.83;;;4.90;99.90;;;;;;5132992;27;20191;-65
2023/12/14 09:13:15;;;;;;;30.87;20.57;;;4.80;99.90;;;;;;5132741;27;20220;-59
2023/12/14 09:15:43;;;;;;;54.90;35.37;;;5.00;99.90;;;;;;5132476;27;20223;-63
2023/12/14 09:18:13;;;;;;;79.93;44.77;;;4.90;99.90;;;;;;5132751;27;20649;-63
2023/12/14 09:20:42;;;;;;;122.17;58.40;;;4.90;99.90;;;;;;5132484;27;20247;-61
2023/12/14 09:23:11;;;;;;;95.57;50.37;;;4.80;99.90;;;;;;5132704;27;20191;-62
2023/12/14 09:25:39;;;;;;;94.13;51.07;;;4.80;99.90;;;;;;5132345;27;20297;-59
2023/12/14 09:28:08;;;;;;;84.23;43.10;;;5.00;99.90;;;;;;5132658;27;20748;-60
2023/12/14 09:30:36;;;;;;;64.60;37.07;;;4.90;99.90;;;;;;5132185;27;20198;-63
2023/12/14 09:33:04;;;;;;;48.47;29.30;;;4.90;99.90;;;;;;5132620;27;20195;-62
2023/12/14 09:35:35;;;;;;;43.57;25.73;;;5.20;99.90;;;;;;5132352;27;20696;-63
2023/12/14 09:38:04;;;;;;;51.70;32.07;;;5.40;99.90;;;;;;5132306;27;20195;-61
2023/12/14 09:40:32;;;;;;;87.00;49.93;;;5.40;99.90;;;;;;5131841;27;20306;-60
2023/12/14 09:43:01;;;;;;;108.70;57.93;;;5.40;99.90;;;;;;5130960;27;20665;-64
2023/12/14 09:45:31;;;;;;;112.27;61.27;;;5.50;99.90;;;;;;5131815;27;20199;-64
2023/12/14 09:48:01;;;;;;;110.60;60.07;;;5.60;99.90;;;;;;5131870;27;20583;-60
2023/12/14 09:50:30;;;;;;;116.03;62.23;;;5.60;99.90;;;;;;5131725;27;20210;-64
2023/12/14 09:53:00;;;;;;;97.43;52.33;;;5.60;99.90;;;;;;5131632;27;20214;-60
2023/12/14 09:55:29;;;;;;;86.73;49.10;;;5.40;99.90;;;;;;5131616;27;20581;-61
2023/12/14 09:57:57;;;;;;;93.30;49.33;;;5.30;99.90;;;;;;5131590;27;20236;-64
2023/12/14 10:00:35;;;;;;;83.57;47.87;;;5.20;99.90;;;;;;5131446;27;20191;-63
2023/12/14 10:03:23;;;;;;;74.53;46.20;;;5.20;99.90;;;;;;5131705;27;20672;-62
2023/12/14 10:05:52;;;;;;;71.50;41.63;;;5.10;99.90;;;;;;5131633;27;20198;-63
2023/12/14 10:08:23;;;;;;;67.20;42.00;;;5.10;99.90;;;;;;5131457;27;20974;-64
2023/12/14 10:10:53;;;;;;;65.13;40.53;;;5.10;99.90;;;;;;5131301;27;20664;-65
2023/12/14 10:13:23;;;;;;;69.20;40.50;;;5.20;99.90;;;;;;5131456;27;20195;-63
2023/12/14 10:15:51;;;;;;;58.00;35.90;;;5.20;99.90;;;;;;5131089;27;20234;-64
2023/12/14 10:18:24;;;;;;;49.50;31.67;;;5.30;99.90;;;;;;5131161;27;20264;-65
2023/12/14 10:20:53;;;;;;;44.43;28.50;;;5.40;99.90;;;;;;5131267;27;20274;-63
2023/12/14 10:23:23;;;;;;;45.97;28.87;;;5.30;99.90;;;;;;5131281;27;20199;-61
2023/12/14 10:25:54;;;;;;;52.70;31.93;;;5.30;99.90;;;;;;5131286;27;20291;-60
2023/12/14 10:28:24;;;;;;;51.00;31.67;;;5.30;99.90;;;;;;5131089;27;20913;-61
2023/12/14 10:30:53;;;;;;;53.67;32.77;;;5.20;99.90;;;;;;5130761;27;20198;-63
2023/12/14 10:33:21;;;;;;;49.53;32.13;;;5.10;99.90;;;;;;5131160;27;20203;-62
2023/12/14 10:35:50;;;;;;;59.73;36.77;;;5.10;99.90;;;;;;5130704;27;20225;-64
2023/12/14 10:38:19;;;;;;;52.47;32.93;;;5.10;99.90;;;;;;5130909;27;20199;-63
2023/12/14 10:40:49;;;;;;;50.43;31.67;;;5.20;99.90;;;;;;5130650;27;20285;-62
2023/12/14 10:43:17;;;;;;;60.63;38.47;;;5.10;99.90;;;;;;5130907;27;20242;-60
2023/12/14 10:46:02;;;;;;;59.40;38.73;;;5.20;99.90;;;;;;5130533;27;20691;-64
2023/12/14 10:48:31;;;;;;;58.57;37.33;;;5.30;99.90;;;;;;5130812;27;20221;-64
2023/12/14 10:51:03;;;;;;;54.87;35.10;;;5.50;99.90;;;;;;5130777;27;20549;-61
2023/12/14 10:53:31;;;;;;;51.43;33.63;;;5.50;99.90;;;;;;5129490;27;20226;-62
2023/12/14 10:56:06;;;;;;;45.10;29.83;;;5.40;99.90;;;;;;5130175;27;20223;-61
2023/12/14 10:58:47;;;;;;;52.57;33.07;;;5.40;99.90;;;;;;5130493;27;20657;-64
2023/12/14 11:01:17;;;;;;;58.27;37.57;;;5.40;99.90;;;;;;5130237;27;20194;-63
2023/12/14 11:03:46;;;;;;;60.20;35.50;;;5.30;99.90;;;;;;5130417;27;20191;-65
2023/12/14 11:06:31;;;;;;;53.20;34.80;;;5.40;99.90;;;;;;5130459;27;20198;-61
2023/12/14 11:09:05;;;;;;;53.60;36.37;;;5.30;99.90;;;;;;5130288;27;20248;-62
2023/12/14 11:11:43;;;;;;;53.70;34.97;;;5.30;99.90;;;;;;5130197;27;20191;-64
2023/12/14 11:14:13;;;;;;;57.33;34.93;;;5.40;99.90;;;;;;5130243;27;20199;-61
2023/12/14 11:16:46;;;;;;;55.80;38.10;;;5.50;99.90;;;;;;5129975;27;20633;-63
2023/12/14 11:19:31;;;;;;;61.97;38.33;;;5.50;99.90;;;;;;5130238;27;20837;-63
2023/12/14 11:22:14;;;;;;;67.27;41.03;;;5.50;99.90;;;;;;5130439;27;20232;-64
2023/12/14 11:24:44;;;;;;;61.70;39.13;;;5.60;99.90;;;;;;5130125;27;20331;-63
2023/12/14 11:27:14;;;;;;;83.67;48.70;;;5.50;99.90;;;;;;5129964;27;20239;-64
2023/12/14 11:29:43;;;;;;;74.17;44.77;;;5.50;99.90;;;;;;5129913;27;20729;-61
2023/12/14 11:32:11;;;;;;;77.97;44.43;;;5.50;99.90;;;;;;5130152;27;20207;-65
2023/12/14 11:34:40;;;;;;;66.17;42.37;;;5.50;99.90;;;;;;5129829;27;20314;-60
2023/12/14 11:37:09;;;;;;;70.83;43.23;;;5.50;99.90;;;;;;5130028;27;20211;-60
2023/12/14 11:39:38;;;;;;;71.20;45.43;;;5.50;99.90;;;;;;5130082;27;20195;-63
2023/12/14 11:42:10;;;;;;;89.23;50.23;;;5.50;99.90;;;;;;5129747;27;20228;-64
2023/12/14 11:44:42;;;;;;;92.27;53.90;;;5.60;99.90;;;;;;5130201;27;20201;-62
2023/12/14 11:47:10;;;;;;;88.63;52.23;;;5.60;99.90;;;;;;5129612;27;20191;-65
2023/12/14 11:49:38;;;;;;;99.87;61.83;;;5.60;99.90;;;;;;5130188;27;20214;-60
2023/12/14 11:52:07;;;;;;;134.30;80.30;;;5.70;99.90;;;;;;5130085;27;20281;-60
2023/12/14 11:54:35;;;;;;;168.53;92.67;;;5.80;99.90;;;;;;5130022;27;20203;-60
2023/12/14 11:57:04;;;;;;;151.47;91.33;;;5.80;99.90;;;;;;5129476;27;20218;-64
2023/12/14 11:59:33;;;;;;;131.03;77.20;;;5.80;99.90;;;;;;5129780;27;20209;-63
2023/12/14 12:02:03;;;;;;;129.77;73.57;;;5.90;99.90;;;;;;5129717;27;20255;-64
2023/12/14 12:04:31;;;;;;;104.87;61.63;;;5.80;99.90;;;;;;5129649;27;20201;-64
2023/12/14 12:07:01;;;;;;;43.03;24.73;;;5.80;99.90;;;;;;5129232;27;20199;-61
2023/12/14 12:09:42;;;;;;;40.63;26.00;;;5.80;99.90;;;;;;5129685;28;20584;-62
2023/12/14 12:12:12;;;;;;;17.40;11.20;;;5.80;99.90;;;;;;5129675;27;20213;-61
2023/12/14 12:14:41;;;;;;;10.37;8.10;;;5.80;99.90;;;;;;5129631;28;20202;-62
2023/12/14 12:17:11;;;;;;;9.23;7.63;;;5.90;99.90;;;;;;5129464;27;20232;-60
2023/12/14 12:19:42;;;;;;;10.57;8.53;;;5.90;99.90;;;;;;5129539;28;20251;-65
2023/12/14 12:22:10;;;;;;;9.50;7.23;;;6.00;99.90;;;;;;5129524;28;20201;-62
2023/12/14 12:24:39;;;;;;;10.97;7.20;;;6.00;99.90;;;;;;5129740;28;20195;-62
2023/12/14 12:27:09;;;;;;;14.97;7.57;;;6.00;99.90;;;;;;5129724;27;20199;-61
2023/12/14 12:29:37;;;;;;;12.00;7.50;;;6.00;99.90;;;;;;5129777;27;20191;-60
2023/12/14 12:32:05;;;;;;;13.80;7.40;;;6.10;99.90;;;;;;5129730;28;20198;-61
2023/12/14 12:34:35;;;;;;;11.70;8.10;;;6.20;99.90;;;;;;5129444;27;20285;-58
2023/12/14 12:37:03;;;;;;;14.67;7.83;;;6.30;99.90;;;;;;5129411;28;20215;-61
2023/12/14 12:39:31;;;;;;;15.13;8.47;;;6.30;99.90;;;;;;5129401;27;20257;-63
2023/12/14 12:42:00;;;;;;;19.00;8.50;;;6.30;99.90;;;;;;5128958;27;20239;-62
2023/12/14 12:44:28;;;;;;;15.07;9.10;;;6.30;99.90;;;;;;5129211;28;20204;-60
2023/12/14 12:46:58;;;;;;;17.77;11.50;;;6.20;99.90;;;;;;5129122;28;20216;-64